• Join FlightAware (Why Join?)
  • Login
  • US Flag 
08:24PM EDT


 

Airport Tracker/Info


-or-


 

Live Flight TrackerFlight Track Log ✈ VH-ZSD ✈ 21-Apr-2013 ✈ YCFS - YSBK / BWU

Flight Track Log - Related Links

Times and Time Zones

All times are in EDT time to prevent confusion due to time zone crossing. See the VH-ZSD flight status page for this flight to view local times or setup timezone preferences in your user account.

Time Position Orientation Groundspeed Altitude Reporting Facility
EDT Latitude Longitude Course Direction KTS MPH feet Rate Location/Type
12:49AM -30.3122 153.1172 213° Southwest 8,000  Level Aus ATC (Calculated)
12:50AM -30.3122 153.1172 213° Southwest 8,000 -180 Level Aus ATC (Calculated)
12:52AM -30.3560 153.0820 215° Southwest  Level FlightAware Approximate
12:52AM -30.3595 153.0791 213° Southwest 8,000  Level Aus ATC (Calculated)
12:53AM -30.3814 153.0615 215° Southwest  Level FlightAware Approximate
12:54AM -30.4033 153.0438 215° Southwest  Level FlightAware Approximate
12:54AM -30.4542 153.0028 212° Southwest 8,000  Level Aus ATC (Calculated)
12:56AM -30.4877 152.9757 215° Southwest  Level FlightAware Approximate
12:57AM -30.5096 152.9580 215° Southwest  Level FlightAware Approximate
12:57AM -30.5015 152.9646 211° Southwest 8,000  Level Aus ATC (Calculated)
12:59AM -30.5317 152.9401 215° Southwest  Level FlightAware Approximate
01:00AM -30.5536 152.9224 215° Southwest  Level FlightAware Approximate
01:01AM -30.5755 152.9047 215° Southwest  Level FlightAware Approximate
01:02AM -30.5973 152.8870 215° Southwest  Level FlightAware Approximate
01:02AM -30.6530 152.8569 215° Southwest 120 138 5,900  Level Aus ATC (RADAR)
01:02AM -30.6610 152.8508 214° Southwest 105 121 6,000 360 Climbing Aus ATC (RADAR)
01:05AM -30.6974 152.8116 223° Southwest 69 79 7,000 300 Climbing Aus ATC (RADAR)
01:06AM -30.7192 152.7937 215° Southwest 76 87 7,300 300 Climbing Aus ATC (RADAR)
01:06AM -30.7228 152.7895 225° Southwest 75 86 7,500 480 Climbing Aus ATC (RADAR)
01:07AM -30.7351 152.7828 205° Southwest 79 91 7,700 300 Climbing Aus ATC (RADAR)
01:08AM -30.7513 152.7698 215° Southwest 79 91 8,000 120 Climbing Aus ATC (RADAR)
01:08AM -30.7632 152.7593 217° Southwest 91 105 7,900 -120 Descending Aus ATC (RADAR)
01:09AM -30.7855 152.7385 219° Southwest 111 128 7,900 60 Level Aus ATC (RADAR)
01:10AM -30.8020 152.7261 213° Southwest 105 121 8,000  Climbing Aus ATC (RADAR)
01:11AM -30.8328 152.6991 217° Southwest 108 124 8,000  Level Aus ATC (RADAR)
01:11AM -30.8399 152.6941 211° Southwest 113 130 8,000  Level Aus ATC (RADAR)
01:12AM -30.8526 152.6840 214° Southwest 112 129 8,000  Level Aus ATC (RADAR)
01:13AM -30.8769 152.6644 215° Southwest 98 113 8,000  Level Aus ATC (RADAR)
01:14AM -30.8892 152.6545 215° Southwest 93 107 8,000  Level Aus ATC (RADAR)
01:15AM -30.9088 152.6382 215° Southwest 95 109 8,000  Level Aus ATC (RADAR)
01:15AM -30.9218 152.6275 216° Southwest 98 113 8,000  Level Aus ATC (RADAR)
01:16AM -30.9527 152.6027 214° Southwest 108 124 8,000  Level Aus ATC (RADAR)
01:17AM -30.9586 152.5972 219° Southwest 108 124 8,000  Level Aus ATC (RADAR)
01:17AM -30.9735 152.5854 214° Southwest 111 128 8,000  Level Aus ATC (RADAR)
01:18AM -31.0000 152.5640 215° Southwest 106 122 8,000  Level Aus ATC (RADAR)
01:19AM -31.0137 152.5527 215° Southwest 104 120 8,000  Level Aus ATC (RADAR)
01:20AM -31.0376 152.5335 215° Southwest 106 122 8,000  Level Aus ATC (RADAR)
01:21AM -31.0620 152.5149 213° Southwest 107 123 8,000  Level Aus ATC (RADAR)
01:22AM -31.0753 152.5020 220° Southwest 95 109 8,000 60 Level Aus ATC (RADAR)
01:22AM -31.0807 152.4973 217° Southwest 95 109 8,100 120 Climbing Aus ATC (RADAR)
01:22AM -31.0948 152.4860 214° Southwest 104 120 8,100 -120 Level Aus ATC (RADAR)
01:23AM -31.1173 152.4682 214° Southwest 107 123 8,000 -120 Descending Aus ATC (RADAR)
01:24AM -31.1303 152.4568 217° Southwest 103 119 8,000  Level Aus ATC (RADAR)
01:25AM -31.1581 152.4348 214° Southwest 110 127 8,000  Level Aus ATC (RADAR)
01:26AM -31.1763 152.4182 218° Southwest 102 117 8,000  Level Aus ATC (RADAR)
01:27AM -31.1958 152.4004 218° Southwest 98 113 8,000  Level Aus ATC (RADAR)
01:27AM -31.2101 152.3893 214° Southwest 105 121 8,000  Level Aus ATC (RADAR)
01:28AM -31.2306 152.3716 216° Southwest 101 116 8,000  Level Aus ATC (RADAR)
01:29AM -31.2465 152.3595 213° Southwest 101 116 8,000 60 Level Aus ATC (RADAR)
01:30AM -31.2665 152.3419 217° Southwest 99 114 8,100  Climbing Aus ATC (RADAR)
01:30AM -31.2825 152.3290 214° Southwest 104 120 8,000 -60 Descending Aus ATC (RADAR)
01:31AM -31.3071 152.3081 216° Southwest 103 119 8,000 60 Level Aus ATC (RADAR)
01:32AM -31.3132 152.3032 214° Southwest 104 120 8,100  Climbing Aus ATC (RADAR)
01:32AM -31.3274 152.2917 215° Southwest 106 122 8,000 -60 Descending Aus ATC (RADAR)
01:34AM -31.3607 152.2640 215° Southwest 105 121 8,000  Level Aus ATC (RADAR)
01:35AM -31.3845 152.2441 215° Southwest 104 120 8,000  Level Aus ATC (RADAR)
01:35AM -31.3927 152.2374 215° Southwest 107 123 8,000  Level Aus ATC (RADAR)
01:36AM -31.4213 152.2143 215° Southwest 107 123 8,000  Level Aus ATC (RADAR)
01:37AM -31.4385 152.1995 216° Southwest 104 120 8,000  Level Aus ATC (RADAR)
01:37AM -31.4439 152.1946 218° Southwest 102 117 8,000  Level Aus ATC (RADAR)
01:38AM -31.4586 152.1831 214° Southwest 107 123 8,000  Level Aus ATC (RADAR)
01:39AM -31.4787 152.1659 216° Southwest 109 125 8,000  Level Aus ATC (RADAR)
01:39AM -31.4932 152.1540 215° Southwest 109 125 8,000  Level Aus ATC (RADAR)
01:40AM -31.5239 152.1282 216° Southwest 109 125 8,000  Level Aus ATC (RADAR)
01:42AM -31.5507 152.1060 215° Southwest 109 125 8,000  Level Aus ATC (RADAR)
01:42AM -31.5570 152.1008 215° Southwest 110 127 8,000  Level Aus ATC (RADAR)
01:42AM -31.5714 152.0888 215° Southwest 109 125 8,000  Level Aus ATC (RADAR)
01:43AM -31.5988 152.0659 215° Southwest 112 129 8,000  Level Aus ATC (RADAR)
01:44AM -31.6135 152.0536 216° Southwest 112 129 8,000  Level Aus ATC (RADAR)
01:45AM -31.6411 152.0302 216° Southwest 115 132 8,000  Level Aus ATC (RADAR)
01:46AM -31.6563 152.0175 215° Southwest 115 132 8,000  Level Aus ATC (RADAR)
01:47AM -31.6867 151.9921 215° Southwest 116 133 8,100  Climbing Aus ATC (RADAR)
01:47AM -31.6929 151.9861 220° Southwest 117 135 8,000 -120 Descending Aus ATC (RADAR)
01:48AM -31.7079 151.9734 216° Southwest 115 132 8,000 60 Level Aus ATC (RADAR)
01:49AM -31.7348 151.9503 216° Southwest 111 128 8,100  Climbing Aus ATC (RADAR)
01:49AM -31.7499 151.9393 212° Southwest 109 125 8,000 -120 Descending Aus ATC (RADAR)
01:50AM -31.7750 151.9174 216° Southwest 112 129 8,000  Level Aus ATC (RADAR)
01:51AM -31.7896 151.9057 214° Southwest 109 125 8,000  Level Aus ATC (RADAR)
01:52AM -31.8142 151.8852 215° Southwest 108 124 8,000  Level Aus ATC (RADAR)
01:52AM -31.8203 151.8797 218° Southwest 109 125 8,000  Level Aus ATC (RADAR)
01:53AM -31.8348 151.8681 214° Southwest 110 127 8,000  Level Aus ATC (RADAR)
01:54AM -31.8590 151.8484 214° Southwest 107 123 8,000  Level Aus ATC (RADAR)
01:54AM -31.8732 151.8352 218° Southwest 110 127 8,000 60 Level Aus ATC (RADAR)
01:55AM -31.8968 151.8141 217° Southwest 108 124 8,100  Climbing Aus ATC (RADAR)
01:56AM -31.9106 151.8008 219° Southwest 109 125 8,000 -60 Descending Aus ATC (RADAR)
01:57AM -31.9380 151.7739 220° Southwest 111 128 8,000 60 Level Aus ATC (RADAR)
01:57AM -31.9437 151.7682 221° Southwest 111 128 8,100  Climbing Aus ATC (RADAR)
01:58AM -31.9599 151.7584 207° Southwest 115 132 8,000 -120 Descending Aus ATC (RADAR)
01:59AM -31.9858 151.7403 211° Southwest 108 124 8,000  Level Aus ATC (RADAR)
02:00AM -31.9997 151.7289 215° Southwest 105 121 8,000 60 Level Aus ATC (RADAR)
02:01AM -32.0241 151.7075 217° Southwest 108 124 8,100  Climbing Aus ATC (RADAR)
02:01AM -32.0358 151.6987 213° Southwest 102 117 8,000 -60 Descending Aus ATC (RADAR)
02:02AM -32.0659 151.6726 216° Southwest 105 121 8,000  Level Aus ATC (RADAR)
02:03AM -32.0721 151.6669 218° Southwest 109 125 8,000  Level Aus ATC (RADAR)
02:03AM -32.0886 151.6540 214° Southwest 107 123 8,000 60 Level Aus ATC (RADAR)
02:04AM -32.1130 151.6331 216° Southwest 109 125 8,100  Climbing Aus ATC (RADAR)
02:05AM -32.1273 151.6206 217° Southwest 111 128 8,000 -120 Descending Aus ATC (RADAR)
02:06AM -32.1498 151.6015 216° Southwest 107 123 8,000  Level Aus ATC (RADAR)
02:06AM -32.1639 151.5891 216° Southwest 108 124 8,000  Level Aus ATC (RADAR)
02:07AM -32.1877 151.5690 216° Southwest 106 122 8,000 60 Level Aus ATC (RADAR)
02:08AM -32.1957 151.5628 214° Southwest 105 121 8,100  Climbing Aus ATC (RADAR)
02:08AM -32.2115 151.5490 216° Southwest 105 121 8,000  Descending Aus ATC (RADAR)
02:09AM -32.2320 151.5315 216° Southwest 108 124 8,100  Climbing Aus ATC (RADAR)
02:10AM -32.2462 151.5192 216° Southwest 109 125 8,000  Descending Aus ATC (RADAR)
02:11AM -32.2684 151.5000 216° Southwest 107 123 8,100  Climbing Aus ATC (RADAR)
02:11AM -32.2828 151.4883 214° Southwest 108 124 8,000 -60 Descending Aus ATC (RADAR)
02:12AM -32.3131 151.4625 216° Southwest 108 124 8,000 60 Level Aus ATC (RADAR)
02:13AM -32.3192 151.4574 216° Southwest 108 124 8,100  Climbing Aus ATC (RADAR)
02:13AM -32.3332 151.4450 217° Southwest 108 124 8,000 -60 Descending Aus ATC (RADAR)
02:14AM -32.3620 151.4207 215° Southwest 108 124 8,000  Level Aus ATC (RADAR)
02:15AM -32.3782 151.4070 216° Southwest 107 123 8,100 60 Climbing Aus ATC (RADAR)
02:16AM -32.3988 151.3895 216° Southwest 109 125 8,100 -120 Level Aus ATC (RADAR)
02:17AM -32.4128 151.3769 217° Southwest 109 125 8,000 -120 Descending Aus ATC (RADAR)
02:18AM -32.4382 151.3558 215° Southwest 112 129 8,000  Level Aus ATC (RADAR)
02:18AM -32.4463 151.3486 217° Southwest 111 128 8,000 60 Level Aus ATC (RADAR)
02:18AM -32.4608 151.3357 217° Southwest 112 129 8,100  Climbing Aus ATC (RADAR)
02:19AM -32.4839 151.3165 215° Southwest 112 129 8,000 -120 Descending Aus ATC (RADAR)
02:20AM -32.5000 151.3023 217° Southwest 109 125 8,000  Level Aus ATC (RADAR)
02:21AM -32.5226 151.2831 216° Southwest 108 124 8,000  Level Aus ATC (RADAR)
02:21AM -32.5367 151.2710 216° Southwest 108 124 8,000  Level Aus ATC (RADAR)
02:23AM -32.5931 151.2488 198° South 114 131 8,000  Level Aus ATC (RADAR)
02:24AM -32.6010 151.2469 192° South 115 132 8,000  Level Aus ATC (RADAR)
02:25AM -32.6337 151.2406 189° South 117 135 8,000  Level Aus ATC (RADAR)
02:25AM -32.6414 151.2389 191° South 114 131 8,000  Level Aus ATC (RADAR)
02:25AM -32.6598 151.2351 190° South 114 131 8,000  Level Aus ATC (RADAR)
02:26AM -32.6862 151.2293 191° South 115 132 8,000  Level Aus ATC (RADAR)
02:27AM -32.7097 151.2243 190° South 115 132 8,000  Level Aus ATC (RADAR)
02:28AM -32.7340 151.2185 191° South 115 132 8,000  Level Aus ATC (RADAR)
02:28AM -32.7523 151.2147 190° South 115 132 8,000 60 Level Aus ATC (RADAR)
02:29AM -32.7841 151.2076 191° South 117 135 8,100  Climbing Aus ATC (RADAR)
02:30AM -32.8028 151.2038 190° South 116 133 8,000  Descending Aus ATC (RADAR)
02:31AM -32.8364 151.1978 189° South 117 135 8,100 60 Climbing Aus ATC (RADAR)
02:32AM -32.8550 151.1936 191° South 116 133 8,100  Level Aus ATC (RADAR)
02:33AM -32.8900 151.1861 190° South 118 136 8,100 -120 Level Aus ATC (RADAR)
02:33AM -32.8980 151.1849 187° South 118 136 8,000 -120 Descending Aus ATC (RADAR)
02:34AM -32.9162 151.1798 193° South 111 128 8,000  Level Aus ATC (RADAR)
02:35AM -32.9461 151.1743 189° South 110 127 8,000 60 Level Aus ATC (RADAR)
02:35AM -32.9639 151.1707 190° South 111 128 8,100 60 Climbing Aus ATC (RADAR)
02:36AM -32.9938 151.1639 191° South 115 132 8,100 -120 Level Aus ATC (RADAR)
02:37AM -33.0121 151.1599 190° South 115 132 8,000 -60 Descending Aus ATC (RADAR)
02:38AM -33.0496 151.1515 191° South 109 125 8,000  Level Aus ATC (RADAR)
02:38AM -33.0597 151.1495 189° South 109 125 8,000  Level Aus ATC (RADAR)
02:39AM -33.0778 151.1456 190° South 113 130 8,000  Level Aus ATC (RADAR)
02:40AM -33.1022 151.1413 188° South 110 127 8,000  Level Aus ATC (RADAR)
02:40AM -33.1194 151.1358 195° South 111 128 8,000  Level Aus ATC (RADAR)
02:41AM -33.1411 151.1166 217° Southwest 109 125 8,000  Level Aus ATC (RADAR)
02:42AM -33.1561 151.1053 212° Southwest 109 125 8,000  Level Aus ATC (RADAR)
02:43AM -33.1871 151.0825 212° Southwest 108 124 8,000  Level Aus ATC (RADAR)
02:43AM -33.1935 151.0777 212° Southwest 108 124 8,000  Level Aus ATC (RADAR)
02:44AM -33.2085 151.0669 211° Southwest 107 123 8,000  Level Aus ATC (RADAR)
02:45AM -33.2341 151.0472 213° Southwest 109 125 8,000  Level Aus ATC (RADAR)
02:45AM -33.2492 151.0354 213° Southwest 111 128 8,000  Level Aus ATC (RADAR)
02:46AM -33.2722 151.0184 212° Southwest 111 128 8,000  Level Aus ATC (RADAR)
02:47AM -33.2873 151.0072 212° Southwest 113 130 8,000  Level Aus ATC (RADAR)
02:48AM -33.3164 150.9850 212° Southwest 109 125 8,000  Level Aus ATC (RADAR)
02:48AM -33.3229 150.9805 210° Southwest 108 124 8,000 -360 Level Aus ATC (RADAR)
02:49AM -33.3392 150.9679 213° Southwest 118 136 7,700 -420 Descending Aus ATC (RADAR)
02:50AM -33.3687 150.9460 212° Southwest 113 130 7,300 -420 Descending Aus ATC (RADAR)
02:50AM -33.3843 150.9344 212° Southwest 112 129 7,000 -540 Descending Aus ATC (RADAR)
02:51AM -33.4114 150.9140 212° Southwest 111 128 6,500 -480 Descending Aus ATC (RADAR)
02:52AM -33.4272 150.9025 211° Southwest 113 130 6,300 -480 Descending Aus ATC (RADAR)
02:53AM -33.4546 150.8818 212° Southwest 118 136 5,800 -480 Descending Aus ATC (RADAR)
02:53AM -33.4625 150.8760 211° Southwest 116 133 5,700 -480 Descending Aus ATC (RADAR)
02:54AM -33.4790 150.8636 212° Southwest 119 137 5,400 -480 Descending Aus ATC (RADAR)
02:55AM -33.5050 150.8443 212° Southwest 119 137 5,000 -480 Descending Aus ATC (RADAR)
02:55AM -33.5215 150.8321 212° Southwest 119 137 4,700 -480 Descending Aus ATC (RADAR)
02:56AM -33.5496 150.8111 212° Southwest 125 144 4,300 -480 Descending Aus ATC (RADAR)
02:57AM -33.5679 150.7975 212° Southwest 124 143 4,000 -480 Descending Aus ATC (RADAR)
02:58AM -33.6042 150.7769 205° Southwest 134 154 3,500 -480 Descending Aus ATC (RADAR)
02:58AM -33.6123 150.7821 152° Southeast 130 150 3,400 -540 Descending Aus ATC (RADAR)
02:59AM -33.6314 150.7934 154° Southeast 127 146 3,100 -480 Descending Aus ATC (RADAR)
03:00AM -33.6646 150.8102 157° South 126 145 2,700 -420 Descending Aus ATC (RADAR)
03:01AM -33.6845 150.8203 157° South 124 143 2,500 -180 Descending Aus ATC (RADAR)
03:02AM -33.7131 150.8350 157° South 111 128 2,500  Level Aus ATC (RADAR)
03:02AM -33.7309 150.8440 157° South 112 129 2,500 -120 Level Aus ATC (RADAR)
03:03AM -33.7645 150.8613 157° South 116 133 2,300 -240 Descending Aus ATC (RADAR)
03:04AM -33.7723 150.8656 155° Southeast 118 136 2,200 -600 Descending Aus ATC (RADAR)
03:04AM -33.7901 150.8797 147° Southeast 123 142 1,800 -420 Descending Aus ATC (RADAR)
03:05AM -33.8205 150.9047 146° Southeast 115 132 1,500 -240 Descending Aus ATC (RADAR)
03:06AM -33.8373 150.9127 158° South 114 131 1,400 -300 Descending Aus ATC (RADAR)
03:07AM -33.8642 150.9196 168° South 117 135 1,100 -360 Descending Aus ATC (RADAR)
03:07AM -33.8771 150.9232 167° South 114 131 1,000 -240 Descending Aus ATC (RADAR)
03:08AM -33.9006 150.9495 137° Southeast 84 97 800 -300 Descending Aus ATC (RADAR)
03:09AM -33.9130 150.9711 125° Southeast 61 70 400 -360 Descending Aus ATC (RADAR)
03:10AM -33.9155 150.9759 122° Southeast 63 72 300 -420 Descending Aus ATC (RADAR)